createdAt,value
2022-08-22T00:00:35.683Z,0
2022-08-22T00:06:10.626Z,0
2022-08-22T00:11:45.390Z,2
2022-08-22T00:17:20.179Z,0
2022-08-22T00:22:56.010Z,0
2022-08-22T00:28:32.093Z,4
2022-08-22T00:34:06.791Z,0
2022-08-22T00:39:43.268Z,2
2022-08-22T00:45:19.445Z,1
2022-08-22T00:50:54.185Z,0
2022-08-22T00:56:28.957Z,0
2022-08-22T01:02:03.834Z,2
2022-08-22T01:07:39.565Z,0
2022-08-22T01:13:26.456Z,0
2022-08-22T01:19:02.617Z,2
2022-08-22T01:24:42.038Z,12
2022-08-22T01:30:24.167Z,2
2022-08-22T01:35:59.870Z,4
2022-08-22T01:41:34.859Z,4
2022-08-22T01:47:09.636Z,0
2022-08-22T01:53:06.335Z,4
2022-08-22T01:58:41.362Z,4
2022-08-22T02:04:18.200Z,4
2022-08-22T02:09:58.339Z,4
2022-08-22T02:15:33.213Z,2
2022-08-22T02:21:08.037Z,6
2022-08-22T02:26:43.924Z,2
2022-08-22T02:32:18.777Z,6
2022-08-22T02:37:54.054Z,0
2022-08-22T02:43:50.832Z,2
2022-08-22T02:49:31.611Z,0
2022-08-22T02:55:08.880Z,2
2022-08-22T03:00:44.394Z,12
2022-08-22T03:06:23.139Z,10
2022-08-22T03:11:58.756Z,6
2022-08-22T03:17:38.372Z,4
2022-08-22T03:23:17.291Z,4
2022-08-22T03:29:01.113Z,4
2022-08-22T03:34:44.948Z,2
2022-08-22T03:40:20.674Z,6
2022-08-22T03:45:55.868Z,2
2022-08-22T03:51:31.646Z,4
2022-08-22T03:57:06.483Z,4
2022-08-22T04:02:45.289Z,2
2022-08-22T04:08:27.206Z,4
2022-08-22T04:14:02.321Z,2
2022-08-22T04:19:37.052Z,8
2022-08-22T04:25:11.680Z,0
2022-08-22T04:30:46.432Z,8
2022-08-22T04:36:21.196Z,6
2022-08-22T04:42:34.337Z,11
2022-08-22T04:48:06.974Z,16
2022-08-22T04:53:43.073Z,8
2022-08-22T04:59:17.765Z,10
2022-08-22T05:04:52.579Z,10
2022-08-22T05:10:27.459Z,6
2022-08-22T05:16:04.996Z,8
2022-08-22T05:21:39.906Z,4
2022-08-22T05:27:14.500Z,2
2022-08-22T05:32:50.241Z,8
2022-08-22T05:38:25.090Z,12
2022-08-22T05:44:21.512Z,8
2022-08-22T05:49:54.201Z,4
2022-08-22T05:55:29.374Z,8
2022-08-22T06:01:05.255Z,10
2022-08-22T06:06:41.095Z,8
2022-08-22T06:12:23.744Z,6
2022-08-22T06:18:01.065Z,4
2022-08-22T06:23:36.271Z,8
2022-08-22T06:29:11.219Z,2
2022-08-22T06:34:46.988Z,6
2022-08-22T06:40:22.840Z,12
2022-08-22T06:45:58.363Z,7
2022-08-22T06:51:33.207Z,10
2022-08-22T06:57:08.027Z,6
2022-08-22T07:02:43.291Z,10
2022-08-22T07:08:18.329Z,2
2022-08-22T07:13:54.432Z,6
2022-08-22T07:19:29.456Z,2
2022-08-22T07:25:04.263Z,6
2022-08-22T07:30:42.586Z,8
2022-08-22T07:36:17.387Z,0
2022-08-22T07:42:13.881Z,6
2022-08-22T07:47:54.651Z,6
2022-08-22T07:53:30.223Z,6
2022-08-22T07:59:14.164Z,2
2022-08-22T08:04:53.708Z,2
2022-08-22T08:10:29.059Z,8
2022-08-22T08:16:04.971Z,6
2022-08-22T08:21:40.664Z,4
2022-08-22T08:27:16.743Z,4
2022-08-22T08:33:27.347Z,6
2022-08-22T08:39:03.400Z,4
2022-08-22T08:44:59.941Z,0
2022-08-22T08:50:33.054Z,2
2022-08-22T08:56:13.955Z,12
2022-08-22T09:01:58.377Z,2
2022-08-22T09:07:37.530Z,2
2022-08-22T09:13:14.377Z,2
2022-08-22T09:18:49.262Z,2
2022-08-22T09:24:24.367Z,0
2022-08-22T09:30:04.761Z,0
2022-08-22T09:35:39.718Z,0
2022-08-22T09:41:15.558Z,0
2022-08-22T09:46:51.361Z,2
2022-08-22T09:52:37.594Z,2
2022-08-22T09:58:22.992Z,0
2022-08-22T10:03:59.379Z,0
2022-08-22T10:09:34.147Z,0
2022-08-22T10:15:10.019Z,0
2022-08-22T10:20:48.894Z,0
2022-08-22T10:26:26.714Z,0
2022-08-22T10:32:15.498Z,0
2022-08-22T10:37:51.593Z,0
2022-08-22T10:44:05.146Z,0
2022-08-22T10:49:38.631Z,0
2022-08-22T10:55:15.897Z,0
2022-08-22T11:00:51.817Z,0
2022-08-22T11:06:29.119Z,0
2022-08-22T11:12:05.418Z,0
2022-08-22T11:17:55.150Z,0
2022-08-22T11:23:30.441Z,0
2022-08-22T11:29:15.301Z,0
2022-08-22T11:34:50.973Z,0
2022-08-22T11:40:27.817Z,0
2022-08-22T11:46:07.061Z,0
2022-08-22T11:51:51.360Z,0
2022-08-22T11:57:35.549Z,0
2022-08-22T12:03:14.643Z,0
2022-08-22T12:08:49.963Z,0
2022-08-22T12:14:29.285Z,0
2022-08-22T12:20:20.599Z,0
2022-08-22T12:25:57.419Z,0
2022-08-22T12:31:39.474Z,0
2022-08-22T12:37:14.949Z,0
2022-08-22T12:43:11.666Z,0
2022-08-22T12:48:48.463Z,0
2022-08-22T12:54:24.129Z,0
2022-08-22T13:00:02.558Z,0
2022-08-22T13:05:43.377Z,2
2022-08-22T13:11:25.165Z,0
2022-08-22T13:17:00.076Z,0
2022-08-22T13:23:13.098Z,0
2022-08-22T13:29:24.390Z,0
2022-08-22T13:35:32.689Z,2
2022-08-22T13:41:08.666Z,2
2022-08-22T13:47:16.797Z,0
2022-08-22T13:52:55.987Z,2
2022-08-22T13:58:32.035Z,2
2022-08-22T14:04:37.193Z,0
2022-08-22T14:10:17.716Z,0
2022-08-22T14:15:53.696Z,0
2022-08-22T14:21:41.716Z,2
2022-08-22T14:27:20.985Z,0
2022-08-22T14:32:59.840Z,2
2022-08-22T14:38:37.142Z,2
2022-08-22T14:44:33.857Z,2
2022-08-22T14:50:12.810Z,2
2022-08-22T14:55:54.158Z,0
2022-08-22T15:01:37.678Z,2
2022-08-22T15:07:14.587Z,2
2022-08-22T15:12:53.034Z,0
2022-08-22T15:18:28.318Z,0
2022-08-22T15:24:03.648Z,0
2022-08-22T15:29:40.743Z,0
2022-08-22T15:35:18.886Z,2
2022-08-22T15:40:56.300Z,0
2022-08-22T15:46:32.103Z,4
2022-08-22T15:52:13.143Z,0
2022-08-22T15:57:51.864Z,0
2022-08-22T16:03:28.997Z,0
2022-08-22T16:09:05.383Z,2
2022-08-22T16:14:40.110Z,0
2022-08-22T16:20:23.306Z,4
2022-08-22T16:26:05.342Z,2
2022-08-22T16:31:40.523Z,0
2022-08-22T16:37:15.646Z,4
2022-08-22T16:43:12.682Z,4
2022-08-22T16:48:45.552Z,0
2022-08-22T16:54:20.303Z,0
2022-08-22T16:59:55.102Z,0
2022-08-22T17:05:31.266Z,0
2022-08-22T17:11:10.513Z,2
2022-08-22T17:16:45.557Z,0
2022-08-22T17:22:31.323Z,0
2022-08-22T17:28:07.098Z,0
2022-08-22T17:33:41.961Z,0
2022-08-22T17:39:16.668Z,0
2022-08-22T17:45:15.627Z,0
2022-08-22T17:50:51.677Z,0
2022-08-22T17:56:30.988Z,0
2022-08-22T18:02:06.072Z,0
2022-08-22T18:07:41.008Z,0
2022-08-22T18:13:15.714Z,0
2022-08-22T18:18:51.507Z,0
2022-08-22T18:24:34.263Z,0
2022-08-22T18:30:10.219Z,0
2022-08-22T18:35:55.029Z,0
2022-08-22T18:41:33.133Z,0
2022-08-22T18:47:07.797Z,0
2022-08-22T18:52:45.162Z,0
2022-08-22T18:58:25.503Z,0
2022-08-22T19:04:00.251Z,0
2022-08-22T19:09:36.021Z,0
2022-08-22T19:15:10.902Z,0
2022-08-22T19:20:45.701Z,0
2022-08-22T19:26:20.551Z,0
2022-08-22T19:31:57.569Z,4
2022-08-22T19:37:35.052Z,0
2022-08-22T19:43:31.666Z,0
2022-08-22T19:49:04.419Z,0
2022-08-22T19:54:39.139Z,2
2022-08-22T20:00:15.019Z,0
2022-08-22T20:06:33.996Z,0
2022-08-22T20:12:20.210Z,0
2022-08-22T20:19:10.083Z,0
2022-08-22T20:24:46.246Z,0
2022-08-22T20:30:46.512Z,0
2022-08-22T20:36:30.097Z,0
2022-08-22T20:42:05.735Z,0
2022-08-22T20:48:29.940Z,0
2022-08-22T20:54:16.088Z,2
2022-08-22T20:59:51.891Z,0
2022-08-22T21:05:26.806Z,0
2022-08-22T21:11:01.606Z,2
2022-08-22T21:16:36.409Z,0
2022-08-22T21:22:11.347Z,2
2022-08-22T21:27:46.094Z,0
2022-08-22T21:33:24.848Z,0
2022-08-22T21:39:04.103Z,0
2022-08-22T21:45:00.864Z,0
2022-08-22T21:50:33.822Z,0
2022-08-22T21:56:09.662Z,0
2022-08-22T22:01:50.198Z,0
2022-08-22T22:07:24.987Z,4
2022-08-22T22:12:59.961Z,0
2022-08-22T22:18:34.810Z,0
2022-08-22T22:24:09.872Z,0
2022-08-22T22:29:45.670Z,0
2022-08-22T22:35:20.384Z,0
2022-08-22T22:40:55.357Z,0
2022-08-22T22:46:31.468Z,0
2022-08-22T22:52:14.023Z,0
2022-08-22T22:58:01.020Z,0
2022-08-22T23:03:38.668Z,0
2022-08-22T23:09:15.218Z,0
2022-08-22T23:14:53.426Z,0
2022-08-22T23:20:27.992Z,0
2022-08-22T23:26:03.029Z,0
2022-08-22T23:31:38.225Z,0
2022-08-22T23:37:13.004Z,0
2022-08-22T23:43:09.606Z,0
2022-08-22T23:48:42.210Z,0
2022-08-22T23:54:16.837Z,0
